Bennington, VT (05201)

4:57 PM EDT on August 04, 2015 (GMT -0400)
Sacred Heart School | | Change Station
CLOSE
Current Station
Personal Weather Station
Location: Bennington, VT
Elevation: 685 ft
Nearby Weather Stations

Elev 685 ft 42.88 °N, 73.19 °W | Updated 9 seconds ago

Clear
Clear
81.0 °F
Feels Like 79 °F
N
0.0
Wind Variable Wind from NNE
Gusts 0.0 mph

Today
High -- | Low -- °F
--% Chance of Precip.
Yesterday
High -- | Low -- °F
Precip. -- in
5:46 AM 8:10 PM
Waning Gibbous, 74% visible
Pressure 29.84 in
Visibility 10.0 miles
Clouds Scattered Clouds 9500 ft
Heat Index 79 °F
Dew Point 13 °F
Humidity 8%
Rainfall 0.00 in
Snow Depth Not available.
UV 3 out of 12
Pollen 7.40 out of 12
Air Quality Not available.
Flu Activity Not available.
METAR KDDH 042054Z AUTO 27005KT 10SM SCT095 25/14 A2985 RMK AO2 SLP103 T02500139 53005

More Conditions Fewer Conditions

Pressure 29.84 in
Visibility 10.0 miles
Clouds Scattered Clouds 9500 ft
Heat Index 79 °F
Dew Point 13 °F
Humidity 8%
Rainfall 0.00 in
Snow Depth Not available.
UV 3 out of 12
Pollen 7.40 out of 12
Air Quality Not available.
Flu Activity Not available.
METAR KDDH 042054Z AUTO 27005KT 10SM SCT095 25/14 A2985 RMK AO2 SLP103 T02500139 53005

More Conditions Fewer Conditions

10-Day Weather Forecast

×

Almanac

Astronomy

Aug. 04, 2015 Rise Set
Actual Time
Civil Twilight
Nautical Twilight
Astronomical Twilight
Moon
Length of Visible Light
Length of Day
Tomorrow will be .
, % of the Moon is Illuminated

Today's Extremes

State Highs State Lows

Community

WunderPhotos

Upload Photos

1,843,974 photos uploaded!

WunderBlogs® & News

Nearby

Air Quality

  Air Quality AQ Index Pollutant
Not available.

Snow Depth

Station Depth Elevation

Earthquake Activity

City Distance Mag. Time & Date
Minimum magnitude displayed is 2.5.

Coastal Water Temperatures

Place Temperature

Stations

Nearby Weather Stations

Station Location Temp. Windchill Dew Point Humidity Wind Precip. Elev Updated Type
                   
Severe Thunderstorm Watch
Statement as of 4:43 PM EDT on August 04, 2015

Severe Thunderstorm Watch 469 remains in effect until 800 PM EDT

VT
. Vermont counties included are

Addison Bennington Caledonia
Chittenden Essex Franklin
LaMoille Orange Orleans
Rutland Washington Windham
Windsor